sensor_id;sensor_type;location;lat;lon;timestamp;P1;durP1;ratioP1;P2;durP2;ratioP2
15697;SDS011;7949;48.726;9.102;2022-10-31T00:02:24;10.20;;;2.80;;
15697;SDS011;7949;48.726;9.102;2022-10-31T00:04:51;11.83;;;3.53;;
15697;SDS011;7949;48.726;9.102;2022-10-31T00:07:18;11.30;;;3.30;;
15697;SDS011;7949;48.726;9.102;2022-10-31T00:09:45;8.43;;;3.13;;
15697;SDS011;7949;48.726;9.102;2022-10-31T00:12:11;11.17;;;3.43;;
15697;SDS011;7949;48.726;9.102;2022-10-31T00:14:38;8.90;;;3.20;;
15697;SDS011;7949;48.726;9.102;2022-10-31T00:17:05;9.13;;;3.17;;
15697;SDS011;7949;48.726;9.102;2022-10-31T00:19:33;10.70;;;2.90;;
15697;SDS011;7949;48.726;9.102;2022-10-31T00:22:00;6.00;;;3.03;;
15697;SDS011;7949;48.726;9.102;2022-10-31T00:24:26;11.90;;;3.37;;
15697;SDS011;7949;48.726;9.102;2022-10-31T00:26:53;9.83;;;3.03;;
15697;SDS011;7949;48.726;9.102;2022-10-31T00:29:20;8.93;;;2.80;;
15697;SDS011;7949;48.726;9.102;2022-10-31T00:31:47;10.17;;;2.97;;
15697;SDS011;7949;48.726;9.102;2022-10-31T00:34:14;7.03;;;3.00;;
15697;SDS011;7949;48.726;9.102;2022-10-31T00:36:42;8.03;;;3.67;;
15697;SDS011;7949;48.726;9.102;2022-10-31T00:39:08;7.27;;;3.27;;
15697;SDS011;7949;48.726;9.102;2022-10-31T00:41:35;17.87;;;3.77;;
15697;SDS011;7949;48.726;9.102;2022-10-31T00:44:02;8.13;;;3.70;;
15697;SDS011;7949;48.726;9.102;2022-10-31T00:46:29;6.90;;;2.93;;
15697;SDS011;7949;48.726;9.102;2022-10-31T00:48:56;11.27;;;2.90;;
15697;SDS011;7949;48.726;9.102;2022-10-31T00:51:23;8.00;;;3.10;;
15697;SDS011;7949;48.726;9.102;2022-10-31T00:53:51;9.33;;;3.40;;
15697;SDS011;7949;48.726;9.102;2022-10-31T00:56:17;11.30;;;3.00;;
15697;SDS011;7949;48.726;9.102;2022-10-31T00:58:44;8.63;;;3.13;;
15697;SDS011;7949;48.726;9.102;2022-10-31T01:01:11;9.30;;;3.10;;
15697;SDS011;7949;48.726;9.102;2022-10-31T01:03:38;9.20;;;3.50;;
15697;SDS011;7949;48.726;9.102;2022-10-31T01:06:05;9.43;;;3.10;;
15697;SDS011;7949;48.726;9.102;2022-10-31T01:08:34;8.63;;;3.17;;
15697;SDS011;7949;48.726;9.102;2022-10-31T01:11:05;5.33;;;3.00;;
15697;SDS011;7949;48.726;9.102;2022-10-31T01:13:33;7.40;;;3.67;;
15697;SDS011;7949;48.726;9.102;2022-10-31T01:16:00;14.83;;;3.33;;
15697;SDS011;7949;48.726;9.102;2022-10-31T01:18:28;7.47;;;3.13;;
15697;SDS011;7949;48.726;9.102;2022-10-31T01:21:02;8.80;;;2.50;;
15697;SDS011;7949;48.726;9.102;2022-10-31T01:23:30;9.23;;;3.10;;
15697;SDS011;7949;48.726;9.102;2022-10-31T01:25:58;9.50;;;3.43;;
15697;SDS011;7949;48.726;9.102;2022-10-31T01:28:31;7.60;;;3.20;;
15697;SDS011;7949;48.726;9.102;2022-10-31T01:31:02;8.57;;;3.40;;
15697;SDS011;7949;48.726;9.102;2022-10-31T01:33:30;10.30;;;3.53;;
15697;SDS011;7949;48.726;9.102;2022-10-31T01:35:57;9.10;;;3.47;;
15697;SDS011;7949;48.726;9.102;2022-10-31T01:38:24;13.50;;;3.33;;
15697;SDS011;7949;48.726;9.102;2022-10-31T01:40:51;11.73;;;3.80;;
15697;SDS011;7949;48.726;9.102;2022-10-31T01:43:19;15.37;;;3.83;;
15697;SDS011;7949;48.726;9.102;2022-10-31T01:45:48;8.27;;;3.27;;
15697;SDS011;7949;48.726;9.102;2022-10-31T01:48:18;7.20;;;3.27;;
15697;SDS011;7949;48.726;9.102;2022-10-31T01:50:50;9.90;;;3.30;;
15697;SDS011;7949;48.726;9.102;2022-10-31T01:53:20;6.70;;;3.27;;
15697;SDS011;7949;48.726;9.102;2022-10-31T01:55:48;7.40;;;3.47;;
15697;SDS011;7949;48.726;9.102;2022-10-31T01:58:16;8.03;;;3.43;;
15697;SDS011;7949;48.726;9.102;2022-10-31T02:00:49;9.00;;;3.20;;
15697;SDS011;7949;48.726;9.102;2022-10-31T02:03:20;9.03;;;3.23;;
15697;SDS011;7949;48.726;9.102;2022-10-31T02:05:48;10.43;;;3.60;;
15697;SDS011;7949;48.726;9.102;2022-10-31T02:08:16;8.40;;;3.70;;
15697;SDS011;7949;48.726;9.102;2022-10-31T02:10:46;10.47;;;3.17;;
15697;SDS011;7949;48.726;9.102;2022-10-31T02:13:13;10.63;;;3.43;;
15697;SDS011;7949;48.726;9.102;2022-10-31T02:15:41;6.33;;;3.63;;
15697;SDS011;7949;48.726;9.102;2022-10-31T02:18:10;9.40;;;2.83;;
15697;SDS011;7949;48.726;9.102;2022-10-31T02:20:39;7.00;;;3.00;;
15697;SDS011;7949;48.726;9.102;2022-10-31T02:26:23;13.40;;;3.03;;
15697;SDS011;7949;48.726;9.102;2022-10-31T02:32:04;7.00;;;3.70;;
15697;SDS011;7949;48.726;9.102;2022-10-31T02:34:37;13.10;;;3.13;;
15697;SDS011;7949;48.726;9.102;2022-10-31T02:37:11;7.60;;;3.33;;
15697;SDS011;7949;48.726;9.102;2022-10-31T02:39:42;11.53;;;3.53;;
15697;SDS011;7949;48.726;9.102;2022-10-31T02:42:14;5.77;;;3.00;;
15697;SDS011;7949;48.726;9.102;2022-10-31T02:44:48;10.60;;;4.10;;
15697;SDS011;7949;48.726;9.102;2022-10-31T02:47:23;14.40;;;3.50;;
15697;SDS011;7949;48.726;9.102;2022-10-31T02:49:54;11.63;;;3.43;;
15697;SDS011;7949;48.726;9.102;2022-10-31T02:52:25;10.97;;;4.17;;
15697;SDS011;7949;48.726;9.102;2022-10-31T02:54:53;13.40;;;3.77;;
15697;SDS011;7949;48.726;9.102;2022-10-31T02:57:21;9.03;;;4.03;;
15697;SDS011;7949;48.726;9.102;2022-10-31T02:59:51;7.80;;;3.90;;
15697;SDS011;7949;48.726;9.102;2022-10-31T03:02:30;10.67;;;3.67;;
15697;SDS011;7949;48.726;9.102;2022-10-31T03:05:23;8.67;;;3.93;;
15697;SDS011;7949;48.726;9.102;2022-10-31T03:08:06;13.40;;;4.07;;
15697;SDS011;7949;48.726;9.102;2022-10-31T03:10:40;8.17;;;3.83;;
15697;SDS011;7949;48.726;9.102;2022-10-31T03:13:12;13.07;;;3.60;;
15697;SDS011;7949;48.726;9.102;2022-10-31T03:15:48;11.93;;;3.10;;
15697;SDS011;7949;48.726;9.102;2022-10-31T03:18:19;8.87;;;4.20;;
15697;SDS011;7949;48.726;9.102;2022-10-31T03:20:50;6.93;;;3.20;;
15697;SDS011;7949;48.726;9.102;2022-10-31T03:23:22;5.00;;;2.80;;
15697;SDS011;7949;48.726;9.102;2022-10-31T03:25:50;13.90;;;4.37;;
15697;SDS011;7949;48.726;9.102;2022-10-31T03:28:19;9.17;;;4.63;;
15697;SDS011;7949;48.726;9.102;2022-10-31T03:30:51;5.97;;;3.50;;
15697;SDS011;7949;48.726;9.102;2022-10-31T03:33:21;10.53;;;3.57;;
15697;SDS011;7949;48.726;9.102;2022-10-31T03:35:53;7.97;;;3.80;;
15697;SDS011;7949;48.726;9.102;2022-10-31T03:38:23;12.70;;;3.93;;
15697;SDS011;7949;48.726;9.102;2022-10-31T03:40:51;8.67;;;4.17;;
15697;SDS011;7949;48.726;9.102;2022-10-31T03:43:19;9.07;;;3.90;;
15697;SDS011;7949;48.726;9.102;2022-10-31T03:45:54;8.30;;;3.50;;
15697;SDS011;7949;48.726;9.102;2022-10-31T03:48:23;11.67;;;4.43;;
15697;SDS011;7949;48.726;9.102;2022-10-31T03:50:52;8.50;;;3.57;;
15697;SDS011;7949;48.726;9.102;2022-10-31T03:53:24;6.43;;;3.67;;
15697;SDS011;7949;48.726;9.102;2022-10-31T03:55:57;10.60;;;3.73;;
15697;SDS011;7949;48.726;9.102;2022-10-31T03:58:28;15.17;;;4.03;;
15697;SDS011;7949;48.726;9.102;2022-10-31T04:01:02;10.30;;;3.90;;
15697;SDS011;7949;48.726;9.102;2022-10-31T04:03:33;10.63;;;3.80;;
15697;SDS011;7949;48.726;9.102;2022-10-31T04:06:02;10.40;;;3.80;;
15697;SDS011;7949;48.726;9.102;2022-10-31T04:08:32;13.10;;;4.20;;
15697;SDS011;7949;48.726;9.102;2022-10-31T04:11:03;20.43;;;4.07;;
15697;SDS011;7949;48.726;9.102;2022-10-31T04:13:32;10.53;;;4.30;;
15697;SDS011;7949;48.726;9.102;2022-10-31T04:16:01;10.63;;;3.67;;
15697;SDS011;7949;48.726;9.102;2022-10-31T04:18:28;9.57;;;3.60;;
15697;SDS011;7949;48.726;9.102;2022-10-31T04:21:03;5.93;;;3.33;;
15697;SDS011;7949;48.726;9.102;2022-10-31T04:23:31;15.23;;;3.87;;
15697;SDS011;7949;48.726;9.102;2022-10-31T04:25:59;6.77;;;3.70;;
15697;SDS011;7949;48.726;9.102;2022-10-31T04:28:25;6.97;;;3.57;;
15697;SDS011;7949;48.726;9.102;2022-10-31T04:30:52;7.50;;;3.77;;
15697;SDS011;7949;48.726;9.102;2022-10-31T04:33:19;8.67;;;4.07;;
15697;SDS011;7949;48.726;9.102;2022-10-31T04:35:46;10.37;;;3.90;;
15697;SDS011;7949;48.726;9.102;2022-10-31T04:38:14;7.87;;;3.90;;
15697;SDS011;7949;48.726;9.102;2022-10-31T04:40:41;11.37;;;4.30;;
15697;SDS011;7949;48.726;9.102;2022-10-31T04:43:08;8.87;;;3.80;;
15697;SDS011;7949;48.726;9.102;2022-10-31T04:45:35;7.23;;;4.00;;
15697;SDS011;7949;48.726;9.102;2022-10-31T04:48:01;9.77;;;3.50;;
15697;SDS011;7949;48.726;9.102;2022-10-31T04:50:28;6.07;;;3.37;;
15697;SDS011;7949;48.726;9.102;2022-10-31T04:52:55;8.67;;;3.80;;
15697;SDS011;7949;48.726;9.102;2022-10-31T04:55:23;8.63;;;3.93;;
15697;SDS011;7949;48.726;9.102;2022-10-31T04:57:50;10.80;;;4.53;;
15697;SDS011;7949;48.726;9.102;2022-10-31T05:00:18;11.07;;;5.30;;
15697;SDS011;7949;48.726;9.102;2022-10-31T05:02:46;8.27;;;4.37;;
15697;SDS011;7949;48.726;9.102;2022-10-31T05:05:14;12.33;;;4.20;;
15697;SDS011;7949;48.726;9.102;2022-10-31T05:07:42;5.23;;;3.73;;
15697;SDS011;7949;48.726;9.102;2022-10-31T05:10:12;8.67;;;4.10;;
15697;SDS011;7949;48.726;9.102;2022-10-31T05:12:46;8.00;;;3.80;;
15697;SDS011;7949;48.726;9.102;2022-10-31T05:15:14;9.83;;;4.10;;
15697;SDS011;7949;48.726;9.102;2022-10-31T05:17:42;8.53;;;3.80;;
15697;SDS011;7949;48.726;9.102;2022-10-31T05:20:09;10.57;;;4.60;;
15697;SDS011;7949;48.726;9.102;2022-10-31T05:22:36;8.97;;;4.10;;
15697;SDS011;7949;48.726;9.102;2022-10-31T05:25:03;9.70;;;4.00;;
15697;SDS011;7949;48.726;9.102;2022-10-31T05:27:30;10.63;;;4.20;;
15697;SDS011;7949;48.726;9.102;2022-10-31T05:29:58;8.80;;;3.97;;
15697;SDS011;7949;48.726;9.102;2022-10-31T05:32:25;11.60;;;4.23;;
15697;SDS011;7949;48.726;9.102;2022-10-31T05:34:52;7.77;;;3.73;;
15697;SDS011;7949;48.726;9.102;2022-10-31T05:37:19;8.63;;;4.13;;
15697;SDS011;7949;48.726;9.102;2022-10-31T05:39:45;12.80;;;3.57;;
15697;SDS011;7949;48.726;9.102;2022-10-31T05:42:12;8.03;;;4.07;;
15697;SDS011;7949;48.726;9.102;2022-10-31T05:44:39;8.40;;;4.40;;
15697;SDS011;7949;48.726;9.102;2022-10-31T05:47:07;10.57;;;4.40;;
15697;SDS011;7949;48.726;9.102;2022-10-31T05:49:34;11.10;;;4.40;;
15697;SDS011;7949;48.726;9.102;2022-10-31T05:52:00;12.40;;;4.50;;
15697;SDS011;7949;48.726;9.102;2022-10-31T05:54:27;8.33;;;3.93;;
15697;SDS011;7949;48.726;9.102;2022-10-31T05:56:54;11.77;;;4.90;;
15697;SDS011;7949;48.726;9.102;2022-10-31T05:59:21;9.33;;;4.70;;
15697;SDS011;7949;48.726;9.102;2022-10-31T06:01:48;9.03;;;3.97;;
15697;SDS011;7949;48.726;9.102;2022-10-31T06:04:16;15.23;;;4.37;;
15697;SDS011;7949;48.726;9.102;2022-10-31T06:06:42;9.93;;;4.57;;
15697;SDS011;7949;48.726;9.102;2022-10-31T06:09:09;13.53;;;4.00;;
15697;SDS011;7949;48.726;9.102;2022-10-31T06:11:36;13.23;;;4.10;;
15697;SDS011;7949;48.726;9.102;2022-10-31T06:14:03;13.10;;;4.10;;
15697;SDS011;7949;48.726;9.102;2022-10-31T06:16:30;11.20;;;4.33;;
15697;SDS011;7949;48.726;9.102;2022-10-31T06:18:57;12.00;;;5.13;;
15697;SDS011;7949;48.726;9.102;2022-10-31T06:21:25;9.47;;;4.80;;
15697;SDS011;7949;48.726;9.102;2022-10-31T06:23:53;11.33;;;4.77;;
15697;SDS011;7949;48.726;9.102;2022-10-31T06:26:20;10.13;;;4.53;;
15697;SDS011;7949;48.726;9.102;2022-10-31T06:28:46;11.40;;;4.83;;
15697;SDS011;7949;48.726;9.102;2022-10-31T06:31:13;10.73;;;4.60;;
15697;SDS011;7949;48.726;9.102;2022-10-31T06:33:40;11.37;;;4.50;;
15697;SDS011;7949;48.726;9.102;2022-10-31T06:36:08;10.17;;;5.10;;
15697;SDS011;7949;48.726;9.102;2022-10-31T06:38:36;8.73;;;4.70;;
15697;SDS011;7949;48.726;9.102;2022-10-31T06:41:03;13.30;;;5.37;;
15697;SDS011;7949;48.726;9.102;2022-10-31T06:43:30;32.33;;;7.17;;
15697;SDS011;7949;48.726;9.102;2022-10-31T06:46:01;88.63;;;12.50;;
15697;SDS011;7949;48.726;9.102;2022-10-31T06:48:28;167.33;;;17.73;;
15697;SDS011;7949;48.726;9.102;2022-10-31T06:50:57;129.43;;;17.17;;
15697;SDS011;7949;48.726;9.102;2022-10-31T06:53:24;115.47;;;14.43;;
15697;SDS011;7949;48.726;9.102;2022-10-31T06:55:52;50.90;;;9.27;;
15697;SDS011;7949;48.726;9.102;2022-10-31T06:58:18;27.63;;;8.33;;
15697;SDS011;7949;48.726;9.102;2022-10-31T07:00:45;30.10;;;7.80;;
15697;SDS011;7949;48.726;9.102;2022-10-31T07:03:12;37.60;;;7.93;;
15697;SDS011;7949;48.726;9.102;2022-10-31T07:05:41;28.40;;;7.20;;
15697;SDS011;7949;48.726;9.102;2022-10-31T07:08:10;22.60;;;6.30;;
15697;SDS011;7949;48.726;9.102;2022-10-31T07:10:38;20.00;;;5.87;;
15697;SDS011;7949;48.726;9.102;2022-10-31T07:13:09;21.07;;;7.10;;
15697;SDS011;7949;48.726;9.102;2022-10-31T07:15:38;33.47;;;7.07;;
15697;SDS011;7949;48.726;9.102;2022-10-31T07:18:07;18.57;;;6.40;;
15697;SDS011;7949;48.726;9.102;2022-10-31T07:20:35;13.90;;;5.40;;
15697;SDS011;7949;48.726;9.102;2022-10-31T07:23:03;15.00;;;5.43;;
15697;SDS011;7949;48.726;9.102;2022-10-31T07:25:30;18.07;;;5.43;;
15697;SDS011;7949;48.726;9.102;2022-10-31T07:27:57;13.70;;;5.53;;
15697;SDS011;7949;48.726;9.102;2022-10-31T07:30:25;12.77;;;5.27;;
15697;SDS011;7949;48.726;9.102;2022-10-31T07:32:52;12.00;;;5.17;;
15697;SDS011;7949;48.726;9.102;2022-10-31T07:35:19;8.80;;;4.77;;
15697;SDS011;7949;48.726;9.102;2022-10-31T07:37:47;14.57;;;5.50;;
15697;SDS011;7949;48.726;9.102;2022-10-31T07:40:15;19.43;;;5.37;;
15697;SDS011;7949;48.726;9.102;2022-10-31T07:42:43;16.97;;;5.20;;
15697;SDS011;7949;48.726;9.102;2022-10-31T07:45:11;9.53;;;4.53;;
15697;SDS011;7949;48.726;9.102;2022-10-31T07:47:40;8.43;;;4.40;;
15697;SDS011;7949;48.726;9.102;2022-10-31T07:50:09;8.73;;;4.80;;
15697;SDS011;7949;48.726;9.102;2022-10-31T07:52:37;13.70;;;4.23;;
15697;SDS011;7949;48.726;9.102;2022-10-31T07:55:05;12.17;;;5.07;;
15697;SDS011;7949;48.726;9.102;2022-10-31T07:57:32;7.97;;;4.30;;
15697;SDS011;7949;48.726;9.102;2022-10-31T08:00:00;9.17;;;4.20;;
15697;SDS011;7949;48.726;9.102;2022-10-31T08:02:26;9.30;;;3.63;;
15697;SDS011;7949;48.726;9.102;2022-10-31T08:04:55;8.97;;;4.10;;
15697;SDS011;7949;48.726;9.102;2022-10-31T08:07:21;10.57;;;3.57;;
15697;SDS011;7949;48.726;9.102;2022-10-31T08:09:48;12.70;;;3.97;;
15697;SDS011;7949;48.726;9.102;2022-10-31T08:12:15;9.27;;;3.87;;
15697;SDS011;7949;48.726;9.102;2022-10-31T08:14:42;15.57;;;4.97;;
15697;SDS011;7949;48.726;9.102;2022-10-31T08:17:09;13.60;;;4.73;;
15697;SDS011;7949;48.726;9.102;2022-10-31T08:19:36;10.07;;;4.43;;
15697;SDS011;7949;48.726;9.102;2022-10-31T08:22:04;12.60;;;4.73;;
15697;SDS011;7949;48.726;9.102;2022-10-31T08:24:31;11.57;;;4.27;;
15697;SDS011;7949;48.726;9.102;2022-10-31T08:26:58;8.07;;;4.50;;
15697;SDS011;7949;48.726;9.102;2022-10-31T08:29:24;15.60;;;4.30;;
15697;SDS011;7949;48.726;9.102;2022-10-31T08:31:51;12.00;;;5.00;;
15697;SDS011;7949;48.726;9.102;2022-10-31T08:34:18;19.67;;;4.70;;
15697;SDS011;7949;48.726;9.102;2022-10-31T08:36:45;12.30;;;5.33;;
15697;SDS011;7949;48.726;9.102;2022-10-31T08:39:13;21.90;;;5.83;;
15697;SDS011;7949;48.726;9.102;2022-10-31T08:41:40;24.17;;;5.93;;
15697;SDS011;7949;48.726;9.102;2022-10-31T08:44:06;20.90;;;6.67;;
15697;SDS011;7949;48.726;9.102;2022-10-31T08:46:33;20.67;;;6.43;;
15697;SDS011;7949;48.726;9.102;2022-10-31T08:49:00;18.83;;;6.37;;
15697;SDS011;7949;48.726;9.102;2022-10-31T08:51:27;17.67;;;7.50;;
15697;SDS011;7949;48.726;9.102;2022-10-31T08:53:54;22.90;;;6.33;;
15697;SDS011;7949;48.726;9.102;2022-10-31T08:56:22;13.53;;;5.50;;
15697;SDS011;7949;48.726;9.102;2022-10-31T08:58:49;15.73;;;6.03;;
15697;SDS011;7949;48.726;9.102;2022-10-31T09:01:17;20.37;;;5.60;;
15697;SDS011;7949;48.726;9.102;2022-10-31T09:03:44;9.77;;;5.40;;
15697;SDS011;7949;48.726;9.102;2022-10-31T09:06:11;10.27;;;5.47;;
15697;SDS011;7949;48.726;9.102;2022-10-31T09:08:38;14.13;;;5.43;;
15697;SDS011;7949;48.726;9.102;2022-10-31T09:11:05;15.77;;;5.23;;
15697;SDS011;7949;48.726;9.102;2022-10-31T09:13:33;12.70;;;5.37;;
15697;SDS011;7949;48.726;9.102;2022-10-31T09:16:00;15.80;;;5.07;;
15697;SDS011;7949;48.726;9.102;2022-10-31T09:18:28;19.70;;;5.53;;
15697;SDS011;7949;48.726;9.102;2022-10-31T09:20:57;16.13;;;5.00;;
15697;SDS011;7949;48.726;9.102;2022-10-31T09:23:25;10.13;;;4.60;;
15697;SDS011;7949;48.726;9.102;2022-10-31T09:25:52;9.07;;;4.57;;
15697;SDS011;7949;48.726;9.102;2022-10-31T09:28:20;12.80;;;5.30;;
15697;SDS011;7949;48.726;9.102;2022-10-31T09:30:50;19.70;;;5.20;;
15697;SDS011;7949;48.726;9.102;2022-10-31T09:33:19;15.63;;;5.53;;
15697;SDS011;7949;48.726;9.102;2022-10-31T09:35:47;9.90;;;4.80;;
15697;SDS011;7949;48.726;9.102;2022-10-31T09:38:14;19.37;;;5.13;;
15697;SDS011;7949;48.726;9.102;2022-10-31T09:40:44;15.27;;;5.43;;
15697;SDS011;7949;48.726;9.102;2022-10-31T09:43:14;14.10;;;4.23;;
15697;SDS011;7949;48.726;9.102;2022-10-31T09:45:47;12.23;;;4.70;;
15697;SDS011;7949;48.726;9.102;2022-10-31T09:48:35;13.57;;;4.30;;
15697;SDS011;7949;48.726;9.102;2022-10-31T09:51:08;8.30;;;4.40;;
15697;SDS011;7949;48.726;9.102;2022-10-31T09:53:39;13.43;;;4.93;;
15697;SDS011;7949;48.726;9.102;2022-10-31T09:56:09;9.67;;;4.53;;
15697;SDS011;7949;48.726;9.102;2022-10-31T09:58:41;10.43;;;4.20;;
15697;SDS011;7949;48.726;9.102;2022-10-31T10:01:15;11.67;;;5.00;;
15697;SDS011;7949;48.726;9.102;2022-10-31T10:03:50;9.00;;;4.47;;
15697;SDS011;7949;48.726;9.102;2022-10-31T10:06:22;10.40;;;4.67;;
15697;SDS011;7949;48.726;9.102;2022-10-31T10:08:51;11.80;;;5.00;;
15697;SDS011;7949;48.726;9.102;2022-10-31T10:11:22;9.80;;;4.30;;
15697;SDS011;7949;48.726;9.102;2022-10-31T10:14:09;17.53;;;5.30;;
15697;SDS011;7949;48.726;9.102;2022-10-31T10:16:50;12.30;;;5.77;;
15697;SDS011;7949;48.726;9.102;2022-10-31T10:19:32;13.17;;;5.07;;
15697;SDS011;7949;48.726;9.102;2022-10-31T10:22:09;14.67;;;5.47;;
15697;SDS011;7949;48.726;9.102;2022-10-31T10:24:55;14.10;;;5.20;;
15697;SDS011;7949;48.726;9.102;2022-10-31T10:27:33;21.47;;;5.67;;
15697;SDS011;7949;48.726;9.102;2022-10-31T10:30:12;15.03;;;5.27;;
15697;SDS011;7949;48.726;9.102;2022-10-31T10:32:43;14.07;;;5.33;;
15697;SDS011;7949;48.726;9.102;2022-10-31T10:35:17;15.70;;;5.27;;
15697;SDS011;7949;48.726;9.102;2022-10-31T10:37:49;14.03;;;5.23;;
15697;SDS011;7949;48.726;9.102;2022-10-31T10:40:20;23.00;;;5.53;;
15697;SDS011;7949;48.726;9.102;2022-10-31T10:42:53;21.83;;;5.60;;
15697;SDS011;7949;48.726;9.102;2022-10-31T10:45:42;13.00;;;4.67;;
15697;SDS011;7949;48.726;9.102;2022-10-31T10:48:37;14.43;;;5.33;;
15697;SDS011;7949;48.726;9.102;2022-10-31T10:51:12;8.33;;;4.30;;
15697;SDS011;7949;48.726;9.102;2022-10-31T10:53:48;16.03;;;5.50;;
15697;SDS011;7949;48.726;9.102;2022-10-31T10:56:33;12.03;;;5.67;;
15697;SDS011;7949;48.726;9.102;2022-10-31T10:59:06;13.63;;;5.17;;
15697;SDS011;7949;48.726;9.102;2022-10-31T11:01:37;14.33;;;5.07;;
15697;SDS011;7949;48.726;9.102;2022-10-31T11:04:09;14.60;;;5.47;;
15697;SDS011;7949;48.726;9.102;2022-10-31T11:06:56;12.80;;;5.40;;
15697;SDS011;7949;48.726;9.102;2022-10-31T11:09:23;10.30;;;4.43;;
15697;SDS011;7949;48.726;9.102;2022-10-31T11:11:50;12.33;;;5.10;;
15697;SDS011;7949;48.726;9.102;2022-10-31T11:14:17;15.50;;;4.93;;
15697;SDS011;7949;48.726;9.102;2022-10-31T11:16:46;18.03;;;5.27;;
15697;SDS011;7949;48.726;9.102;2022-10-31T11:19:17;17.13;;;6.00;;
15697;SDS011;7949;48.726;9.102;2022-10-31T11:21:46;16.27;;;4.67;;
15697;SDS011;7949;48.726;9.102;2022-10-31T11:24:15;17.10;;;5.53;;
15697;SDS011;7949;48.726;9.102;2022-10-31T11:26:44;14.47;;;6.10;;
15697;SDS011;7949;48.726;9.102;2022-10-31T11:29:13;19.20;;;6.33;;
15697;SDS011;7949;48.726;9.102;2022-10-31T11:31:42;21.23;;;5.63;;
15697;SDS011;7949;48.726;9.102;2022-10-31T11:34:15;15.57;;;5.00;;
15697;SDS011;7949;48.726;9.102;2022-10-31T11:36:54;14.37;;;5.03;;
15697;SDS011;7949;48.726;9.102;2022-10-31T11:39:25;13.43;;;4.43;;
15697;SDS011;7949;48.726;9.102;2022-10-31T11:41:52;8.77;;;4.57;;
15697;SDS011;7949;48.726;9.102;2022-10-31T11:44:22;12.20;;;5.47;;
15697;SDS011;7949;48.726;9.102;2022-10-31T11:46:53;12.10;;;6.93;;
15697;SDS011;7949;48.726;9.102;2022-10-31T11:49:27;16.00;;;5.77;;
15697;SDS011;7949;48.726;9.102;2022-10-31T11:51:56;11.90;;;5.70;;
15697;SDS011;7949;48.726;9.102;2022-10-31T11:54:25;15.97;;;5.43;;
15697;SDS011;7949;48.726;9.102;2022-10-31T11:56:54;14.30;;;5.80;;
15697;SDS011;7949;48.726;9.102;2022-10-31T11:59:23;15.27;;;6.00;;
15697;SDS011;7949;48.726;9.102;2022-10-31T12:01:53;10.10;;;4.77;;
15697;SDS011;7949;48.726;9.102;2022-10-31T12:04:26;9.13;;;5.33;;
15697;SDS011;7949;48.726;9.102;2022-10-31T12:07:01;13.17;;;4.67;;
15697;SDS011;7949;48.726;9.102;2022-10-31T12:09:28;13.20;;;6.13;;
15697;SDS011;7949;48.726;9.102;2022-10-31T12:12:00;10.40;;;5.33;;
15697;SDS011;7949;48.726;9.102;2022-10-31T12:14:39;38.90;;;7.67;;
15697;SDS011;7949;48.726;9.102;2022-10-31T12:17:14;14.30;;;5.87;;
15697;SDS011;7949;48.726;9.102;2022-10-31T12:19:48;17.10;;;5.03;;
15697;SDS011;7949;48.726;9.102;2022-10-31T12:22:29;17.20;;;5.80;;
15697;SDS011;7949;48.726;9.102;2022-10-31T12:25:15;16.83;;;5.60;;
15697;SDS011;7949;48.726;9.102;2022-10-31T12:27:53;14.17;;;6.17;;
15697;SDS011;7949;48.726;9.102;2022-10-31T12:30:30;10.73;;;5.57;;
15697;SDS011;7949;48.726;9.102;2022-10-31T12:33:21;11.23;;;5.57;;
15697;SDS011;7949;48.726;9.102;2022-10-31T12:36:05;13.20;;;4.90;;
15697;SDS011;7949;48.726;9.102;2022-10-31T12:38:43;11.83;;;5.67;;
15697;SDS011;7949;48.726;9.102;2022-10-31T12:41:21;12.90;;;5.97;;
15697;SDS011;7949;48.726;9.102;2022-10-31T12:44:00;16.80;;;5.77;;
15697;SDS011;7949;48.726;9.102;2022-10-31T12:46:36;13.67;;;5.07;;
15697;SDS011;7949;48.726;9.102;2022-10-31T12:49:24;11.57;;;5.63;;
15697;SDS011;7949;48.726;9.102;2022-10-31T12:52:06;13.53;;;5.60;;
15697;SDS011;7949;48.726;9.102;2022-10-31T12:54:51;17.53;;;6.20;;
15697;SDS011;7949;48.726;9.102;2022-10-31T12:57:27;11.40;;;4.73;;
15697;SDS011;7949;48.726;9.102;2022-10-31T12:59:57;12.10;;;5.13;;
15697;SDS011;7949;48.726;9.102;2022-10-31T13:02:29;11.57;;;4.20;;
15697;SDS011;7949;48.726;9.102;2022-10-31T13:05:01;12.73;;;5.30;;
15697;SDS011;7949;48.726;9.102;2022-10-31T13:07:34;13.77;;;6.03;;
15697;SDS011;7949;48.726;9.102;2022-10-31T13:10:05;14.70;;;5.77;;
15697;SDS011;7949;48.726;9.102;2022-10-31T13:12:41;18.13;;;5.40;;
15697;SDS011;7949;48.726;9.102;2022-10-31T13:15:12;11.13;;;5.13;;
15697;SDS011;7949;48.726;9.102;2022-10-31T13:17:44;10.63;;;5.70;;
15697;SDS011;7949;48.726;9.102;2022-10-31T13:20:21;17.57;;;5.10;;
15697;SDS011;7949;48.726;9.102;2022-10-31T13:22:54;13.93;;;5.40;;
15697;SDS011;7949;48.726;9.102;2022-10-31T13:25:25;17.53;;;5.60;;
15697;SDS011;7949;48.726;9.102;2022-10-31T13:27:57;17.27;;;5.67;;
15697;SDS011;7949;48.726;9.102;2022-10-31T13:30:27;12.90;;;5.20;;
15697;SDS011;7949;48.726;9.102;2022-10-31T13:32:59;16.80;;;5.57;;
15697;SDS011;7949;48.726;9.102;2022-10-31T13:35:31;7.73;;;5.60;;
15697;SDS011;7949;48.726;9.102;2022-10-31T13:38:11;11.77;;;5.50;;
15697;SDS011;7949;48.726;9.102;2022-10-31T13:40:47;13.80;;;5.07;;
15697;SDS011;7949;48.726;9.102;2022-10-31T13:43:29;12.07;;;4.90;;
15697;SDS011;7949;48.726;9.102;2022-10-31T13:48:49;13.50;;;5.43;;
15697;SDS011;7949;48.726;9.102;2022-10-31T13:51:24;16.23;;;6.37;;
15697;SDS011;7949;48.726;9.102;2022-10-31T13:54:00;16.00;;;5.47;;
15697;SDS011;7949;48.726;9.102;2022-10-31T13:56:32;15.10;;;5.47;;
15697;SDS011;7949;48.726;9.102;2022-10-31T13:59:04;14.50;;;5.63;;
15697;SDS011;7949;48.726;9.102;2022-10-31T14:01:51;12.33;;;4.80;;
15697;SDS011;7949;48.726;9.102;2022-10-31T14:04:22;13.90;;;4.87;;
15697;SDS011;7949;48.726;9.102;2022-10-31T14:06:53;18.03;;;5.87;;
15697;SDS011;7949;48.726;9.102;2022-10-31T14:09:32;15.27;;;5.77;;
15697;SDS011;7949;48.726;9.102;2022-10-31T14:12:03;16.10;;;5.00;;
15697;SDS011;7949;48.726;9.102;2022-10-31T14:14:35;12.23;;;5.00;;
15697;SDS011;7949;48.726;9.102;2022-10-31T14:17:16;12.80;;;5.67;;
15697;SDS011;7949;48.726;9.102;2022-10-31T14:19:59;15.43;;;5.33;;
15697;SDS011;7949;48.726;9.102;2022-10-31T14:22:31;13.30;;;5.20;;
15697;SDS011;7949;48.726;9.102;2022-10-31T14:27:57;13.10;;;5.43;;
15697;SDS011;7949;48.726;9.102;2022-10-31T14:30:26;10.57;;;4.60;;
15697;SDS011;7949;48.726;9.102;2022-10-31T14:32:56;12.17;;;5.47;;
15697;SDS011;7949;48.726;9.102;2022-10-31T14:35:27;12.80;;;5.43;;
15697;SDS011;7949;48.726;9.102;2022-10-31T14:38:12;12.60;;;5.63;;
15697;SDS011;7949;48.726;9.102;2022-10-31T14:40:52;15.80;;;5.33;;
15697;SDS011;7949;48.726;9.102;2022-10-31T14:43:40;16.27;;;6.03;;
15697;SDS011;7949;48.726;9.102;2022-10-31T14:46:30;12.97;;;6.43;;
15697;SDS011;7949;48.726;9.102;2022-10-31T14:49:12;12.63;;;5.63;;
15697;SDS011;7949;48.726;9.102;2022-10-31T14:51:57;16.43;;;6.47;;
15697;SDS011;7949;48.726;9.102;2022-10-31T14:54:25;16.97;;;6.33;;
15697;SDS011;7949;48.726;9.102;2022-10-31T14:56:58;18.67;;;6.87;;
15697;SDS011;7949;48.726;9.102;2022-10-31T14:59:30;16.50;;;6.47;;
15697;SDS011;7949;48.726;9.102;2022-10-31T15:02:01;15.03;;;5.70;;
15697;SDS011;7949;48.726;9.102;2022-10-31T15:04:36;16.73;;;6.40;;
15697;SDS011;7949;48.726;9.102;2022-10-31T15:07:04;15.27;;;5.30;;
15697;SDS011;7949;48.726;9.102;2022-10-31T15:09:36;14.57;;;5.63;;
15697;SDS011;7949;48.726;9.102;2022-10-31T15:12:21;11.23;;;4.63;;
15697;SDS011;7949;48.726;9.102;2022-10-31T15:14:49;15.10;;;6.17;;
15697;SDS011;7949;48.726;9.102;2022-10-31T15:17:16;14.53;;;5.20;;
15697;SDS011;7949;48.726;9.102;2022-10-31T15:19:43;10.37;;;5.00;;
15697;SDS011;7949;48.726;9.102;2022-10-31T15:22:13;12.60;;;5.43;;
15697;SDS011;7949;48.726;9.102;2022-10-31T15:24:42;15.87;;;5.60;;